Evansville Regional Airport
KEVV : now visible

Airfield :











YOU CAN JOIN US ON...

 
LOGIN :

Register | Disclaimer

   EN    FR    IT 

 









Legend :    VFR   Marginal VFR   IFR   Intensive IFR   Very Intensive IFR
Visi :
Ceiling :
>= 8 km
>= 3000ft
5 to 8 km
1000 to 3000 ft
1500m to 5 km
500 to 1000 ft
800 to 1500m
200 to 500 ft
< 800m
< 200 ft
Symbols :   Thunderstorms  Fog  Heavy snow  Heavy precipitations  Wind > 20 kt







- Airport Elevation : 418 ft
- IATA code : EVV


KEVV - Evansville Regional

CURRENT METAR :
  • 260154Z 14005KT 10SM CLR 22/21 A2993 RMK AO2 SLP133 T02220206

EXPIRED METARs :
  • 260054Z 12006KT 10SM BKN040 BKN060 OVC100 23/21 A2994 RMK AO2 RAB36E51 SLP135 P0001 T02280206
  • 260040Z 13008G18KT 10SM -RA FEW025 BKN038 OVC100 23/21 A2994 RMK AO2 LTG DSNT NE AND E RAB36 P0001 T02330206
  • 260025Z 13009G15KT 10SM VCTS SCT026 BKN032 OVC100 25/21 A2993 RMK AO2 LTG DSNT E T02500206
  • 252354Z 09006KT 10SM SCT030 BKN036 BKN100 27/21 A2992 RMK AO2 LTG DSNT SE SLP129 T02670211 10278 20261 55004

TAF KEVV
Valid from the 26 at 00:00 until the 27 at 00:00 UTC


252340Z 2600/2624 11005KT P6SM VCSH SCT050 BKN100
TEMPO 2600/2602 4SM SHRA BR BKN035
FM260400 VRB05KT 6SM BR VCSH BKN025
FM260800 15006KT 6SM BR VCSH OVC015
TEMPO 2608/2612 3SM SHRA BR OVC009
FM261200 18008KT 5SM -SHRA BR OVC009
FM261900 18012KT P6SM VCSH OVC012
No reported NOTAMs for that airfield.



MET'MAP, your aeronautical weather chart ! - Copyright ORBIFLY December 2007 - Disclaimer

ORBIFLY MET'MAP TEAM :

Programming & Development : Alexandra Zaïnal
Concept & Development : Baudouin d'Aumeries
Co-Development & Prog : Marc-Olivier Méhu
Technical & hardware support : Manuel Goepfert

Contact : metmap@orbifly.com




SOURCES & CREDITS :

   NOAA       Earth
Advisory